sensor_id;sensor_type;location;lat;lon;timestamp;noise_LAeq;noise_LA_min;noise_LA_max;noise_LA01;noise_LA95
81493;Laerm;70900;51.798;10.954;2023-08-07T00:00:50;40.92;32.59;49.95;;
81493;Laerm;70900;51.798;10.954;2023-08-07T00:03:16;31.83;25.88;39.40;;
81493;Laerm;70900;51.798;10.954;2023-08-07T00:05:47;32.42;27.20;38.66;;
81493;Laerm;70900;51.798;10.954;2023-08-07T00:08:14;32.32;27.54;37.63;;
81493;Laerm;70900;51.798;10.954;2023-08-07T00:10:39;32.09;28.43;36.30;;
81493;Laerm;70900;51.798;10.954;2023-08-07T00:13:05;33.94;30.36;40.50;;
81493;Laerm;70900;51.798;10.954;2023-08-07T00:15:30;33.60;30.00;39.18;;
81493;Laerm;70900;51.798;10.954;2023-08-07T00:17:55;36.98;30.50;45.19;;
81493;Laerm;70900;51.798;10.954;2023-08-07T00:20:21;37.65;32.04;44.53;;
81493;Laerm;70900;51.798;10.954;2023-08-07T00:22:46;36.35;31.64;48.67;;
81493;Laerm;70900;51.798;10.954;2023-08-07T00:25:12;35.47;31.92;41.01;;
81493;Laerm;70900;51.798;10.954;2023-08-07T00:27:37;41.43;34.33;48.15;;
81493;Laerm;70900;51.798;10.954;2023-08-07T00:30:03;40.18;33.57;46.15;;
81493;Laerm;70900;51.798;10.954;2023-08-07T00:32:28;41.47;33.21;55.79;;
81493;Laerm;70900;51.798;10.954;2023-08-07T00:34:54;39.64;33.12;46.52;;
81493;Laerm;70900;51.798;10.954;2023-08-07T00:37:19;40.32;33.54;46.25;;
81493;Laerm;70900;51.798;10.954;2023-08-07T00:39:44;40.02;32.42;45.84;;
81493;Laerm;70900;51.798;10.954;2023-08-07T00:42:10;40.54;33.83;48.11;;
81493;Laerm;70900;51.798;10.954;2023-08-07T00:44:35;40.50;34.26;45.32;;
81493;Laerm;70900;51.798;10.954;2023-08-07T00:47:01;37.98;30.46;43.97;;
81493;Laerm;70900;51.798;10.954;2023-08-07T00:49:26;39.69;32.62;47.09;;
81493;Laerm;70900;51.798;10.954;2023-08-07T00:51:52;40.47;32.32;51.16;;
81493;Laerm;70900;51.798;10.954;2023-08-07T00:54:18;37.97;32.68;42.76;;
81493;Laerm;70900;51.798;10.954;2023-08-07T00:56:44;41.92;32.39;54.36;;
81493;Laerm;70900;51.798;10.954;2023-08-07T00:59:10;41.61;34.50;55.00;;
81493;Laerm;70900;51.798;10.954;2023-08-07T01:04:19;40.20;32.57;48.53;;
81493;Laerm;70900;51.798;10.954;2023-08-07T01:12:54;41.18;34.82;51.00;;
81493;Laerm;70900;51.798;10.954;2023-08-07T01:15:25;43.42;32.53;51.91;;
81493;Laerm;70900;51.798;10.954;2023-08-07T01:17:55;38.48;33.18;56.15;;
81493;Laerm;70900;51.798;10.954;2023-08-07T01:20:21;41.42;31.54;48.51;;
81493;Laerm;70900;51.798;10.954;2023-08-07T01:22:46;42.62;34.15;57.51;;
81493;Laerm;70900;51.798;10.954;2023-08-07T01:25:11;43.08;35.88;51.31;;
81493;Laerm;70900;51.798;10.954;2023-08-07T01:27:50;41.89;36.01;50.68;;
81493;Laerm;70900;51.798;10.954;2023-08-07T01:30:33;40.98;34.64;48.34;;
81493;Laerm;70900;51.798;10.954;2023-08-07T01:35:29;42.38;36.23;52.87;;
81493;Laerm;70900;51.798;10.954;2023-08-07T01:37:55;43.38;34.72;53.50;;
81493;Laerm;70900;51.798;10.954;2023-08-07T01:40:21;43.48;37.38;49.76;;
81493;Laerm;70900;51.798;10.954;2023-08-07T01:42:46;40.34;33.05;45.81;;
81493;Laerm;70900;51.798;10.954;2023-08-07T01:45:12;40.86;34.11;57.26;;
81493;Laerm;70900;51.798;10.954;2023-08-07T01:47:38;43.41;34.61;50.46;;
81493;Laerm;70900;51.798;10.954;2023-08-07T01:50:03;45.36;35.64;53.09;;
81493;Laerm;70900;51.798;10.954;2023-08-07T01:52:28;40.02;35.83;49.32;;
81493;Laerm;70900;51.798;10.954;2023-08-07T01:54:54;42.91;35.02;52.20;;
81493;Laerm;70900;51.798;10.954;2023-08-07T01:57:19;41.22;36.09;46.96;;
81493;Laerm;70900;51.798;10.954;2023-08-07T01:59:45;43.70;32.61;54.28;;
81493;Laerm;70900;51.798;10.954;2023-08-07T02:02:10;41.04;34.14;47.14;;
81493;Laerm;70900;51.798;10.954;2023-08-07T02:04:36;41.68;36.57;47.39;;
81493;Laerm;70900;51.798;10.954;2023-08-07T02:07:01;39.86;34.25;45.43;;
81493;Laerm;70900;51.798;10.954;2023-08-07T02:09:26;43.99;35.76;54.97;;
81493;Laerm;70900;51.798;10.954;2023-08-07T02:11:52;45.30;37.95;54.31;;
81493;Laerm;70900;51.798;10.954;2023-08-07T02:14:17;40.17;33.67;50.04;;
81493;Laerm;70900;51.798;10.954;2023-08-07T02:16:42;44.22;34.71;61.75;;
81493;Laerm;70900;51.798;10.954;2023-08-07T02:19:08;42.32;35.15;48.45;;
81493;Laerm;70900;51.798;10.954;2023-08-07T02:21:33;40.70;34.68;47.49;;
81493;Laerm;70900;51.798;10.954;2023-08-07T02:23:58;45.37;34.63;53.70;;
81493;Laerm;70900;51.798;10.954;2023-08-07T02:26:24;44.61;36.43;52.22;;
81493;Laerm;70900;51.798;10.954;2023-08-07T02:28:49;41.79;36.31;47.64;;
81493;Laerm;70900;51.798;10.954;2023-08-07T02:31:15;38.93;35.36;46.04;;
81493;Laerm;70900;51.798;10.954;2023-08-07T02:33:40;44.60;37.02;52.19;;
81493;Laerm;70900;51.798;10.954;2023-08-07T02:36:06;38.86;35.26;44.70;;
81493;Laerm;70900;51.798;10.954;2023-08-07T02:38:32;42.09;35.32;50.69;;
81493;Laerm;70900;51.798;10.954;2023-08-07T02:40:57;41.73;35.44;46.67;;
81493;Laerm;70900;51.798;10.954;2023-08-07T02:43:22;38.83;34.10;56.03;;
81493;Laerm;70900;51.798;10.954;2023-08-07T02:45:48;53.83;33.87;71.49;;
81493;Laerm;70900;51.798;10.954;2023-08-07T02:48:13;39.45;32.95;51.28;;
81493;Laerm;70900;51.798;10.954;2023-08-07T02:50:38;39.31;33.66;45.90;;
81493;Laerm;70900;51.798;10.954;2023-08-07T02:53:04;37.13;33.97;42.52;;
81493;Laerm;70900;51.798;10.954;2023-08-07T02:55:29;42.78;35.37;48.05;;
81493;Laerm;70900;51.798;10.954;2023-08-07T02:57:55;40.66;36.34;46.93;;
81493;Laerm;70900;51.798;10.954;2023-08-07T03:00:20;39.45;34.11;44.78;;
81493;Laerm;70900;51.798;10.954;2023-08-07T03:02:45;39.36;34.84;45.26;;
81493;Laerm;70900;51.798;10.954;2023-08-07T03:05:11;39.67;35.44;47.04;;
81493;Laerm;70900;51.798;10.954;2023-08-07T03:07:36;37.26;34.03;47.97;;
81493;Laerm;70900;51.798;10.954;2023-08-07T03:10:02;47.36;32.23;62.57;;
81493;Laerm;70900;51.798;10.954;2023-08-07T03:12:28;38.67;31.96;46.47;;
81493;Laerm;70900;51.798;10.954;2023-08-07T03:14:54;39.50;34.63;45.49;;
81493;Laerm;70900;51.798;10.954;2023-08-07T03:17:19;38.01;32.61;47.57;;
81493;Laerm;70900;51.798;10.954;2023-08-07T03:19:45;41.44;32.67;54.72;;
81493;Laerm;70900;51.798;10.954;2023-08-07T03:22:11;52.02;36.23;69.19;;
81493;Laerm;70900;51.798;10.954;2023-08-07T03:24:37;40.98;34.36;49.76;;
81493;Laerm;70900;51.798;10.954;2023-08-07T03:27:02;40.28;36.68;44.84;;
81493;Laerm;70900;51.798;10.954;2023-08-07T03:29:27;42.78;36.16;54.30;;
81493;Laerm;70900;51.798;10.954;2023-08-07T03:31:53;39.26;35.34;51.01;;
81493;Laerm;70900;51.798;10.954;2023-08-07T03:34:18;38.56;34.53;45.88;;
81493;Laerm;70900;51.798;10.954;2023-08-07T03:36:44;40.96;35.03;53.42;;
81493;Laerm;70900;51.798;10.954;2023-08-07T03:39:09;45.89;35.62;60.25;;
81493;Laerm;70900;51.798;10.954;2023-08-07T03:41:36;38.06;34.49;43.62;;
81493;Laerm;70900;51.798;10.954;2023-08-07T03:44:02;43.23;35.11;56.28;;
81493;Laerm;70900;51.798;10.954;2023-08-07T03:46:27;50.28;33.88;65.12;;
81493;Laerm;70900;51.798;10.954;2023-08-07T03:48:53;51.84;33.47;64.97;;
81493;Laerm;70900;51.798;10.954;2023-08-07T03:51:18;52.20;34.33;68.33;;
81493;Laerm;70900;51.798;10.954;2023-08-07T03:53:43;56.92;36.26;71.59;;
81493;Laerm;70900;51.798;10.954;2023-08-07T03:56:09;41.22;34.32;52.80;;
81493;Laerm;70900;51.798;10.954;2023-08-07T03:58:34;54.12;35.50;67.51;;
81493;Laerm;70900;51.798;10.954;2023-08-07T04:00:59;54.17;34.77;67.26;;
81493;Laerm;70900;51.798;10.954;2023-08-07T04:03:25;57.12;34.21;70.58;;
81493;Laerm;70900;51.798;10.954;2023-08-07T04:05:54;52.70;36.17;66.31;;
81493;Laerm;70900;51.798;10.954;2023-08-07T04:08:19;54.93;37.05;69.64;;
81493;Laerm;70900;51.798;10.954;2023-08-07T04:10:45;41.89;34.82;56.22;;
81493;Laerm;70900;51.798;10.954;2023-08-07T04:13:10;41.08;36.20;50.73;;
81493;Laerm;70900;51.798;10.954;2023-08-07T04:15:35;55.58;35.95;69.26;;
81493;Laerm;70900;51.798;10.954;2023-08-07T04:18:01;51.81;37.07;65.67;;
81493;Laerm;70900;51.798;10.954;2023-08-07T04:20:26;51.30;36.58;66.89;;
81493;Laerm;70900;51.798;10.954;2023-08-07T04:22:52;41.54;35.88;57.31;;
81493;Laerm;70900;51.798;10.954;2023-08-07T04:25:17;56.89;36.68;73.04;;
81493;Laerm;70900;51.798;10.954;2023-08-07T04:27:42;54.08;37.79;66.73;;
81493;Laerm;70900;51.798;10.954;2023-08-07T04:30:08;42.26;35.96;56.06;;
81493;Laerm;70900;51.798;10.954;2023-08-07T04:32:33;56.40;37.93;72.11;;
81493;Laerm;70900;51.798;10.954;2023-08-07T04:34:59;61.70;38.31;79.84;;
81493;Laerm;70900;51.798;10.954;2023-08-07T04:37:24;52.58;37.58;66.28;;
81493;Laerm;70900;51.798;10.954;2023-08-07T04:39:49;54.39;39.13;67.07;;
81493;Laerm;70900;51.798;10.954;2023-08-07T04:42:15;52.80;36.68;68.39;;
81493;Laerm;70900;51.798;10.954;2023-08-07T04:44:40;54.38;36.73;67.76;;
81493;Laerm;70900;51.798;10.954;2023-08-07T04:47:05;50.22;36.54;64.41;;
81493;Laerm;70900;51.798;10.954;2023-08-07T04:49:31;55.36;38.25;66.81;;
81493;Laerm;70900;51.798;10.954;2023-08-07T04:51:56;42.55;36.61;54.36;;
81493;Laerm;70900;51.798;10.954;2023-08-07T04:54:21;56.53;39.33;70.89;;
81493;Laerm;70900;51.798;10.954;2023-08-07T04:56:47;55.40;37.15;68.35;;
81493;Laerm;70900;51.798;10.954;2023-08-07T04:59:12;58.95;37.89;78.00;;
81493;Laerm;70900;51.798;10.954;2023-08-07T05:01:37;54.82;39.27;66.80;;
81493;Laerm;70900;51.798;10.954;2023-08-07T05:04:03;54.66;38.74;67.23;;
81493;Laerm;70900;51.798;10.954;2023-08-07T05:06:30;55.34;37.90;69.19;;
81493;Laerm;70900;51.798;10.954;2023-08-07T05:08:55;51.32;38.13;63.47;;
81493;Laerm;70900;51.798;10.954;2023-08-07T05:11:21;54.61;36.59;67.77;;
81493;Laerm;70900;51.798;10.954;2023-08-07T05:13:46;48.81;38.24;63.38;;
81493;Laerm;70900;51.798;10.954;2023-08-07T05:16:11;51.20;37.15;66.75;;
81493;Laerm;70900;51.798;10.954;2023-08-07T05:18:37;52.96;36.98;66.56;;
81493;Laerm;70900;51.798;10.954;2023-08-07T05:21:02;50.01;36.24;65.98;;
81493;Laerm;70900;51.798;10.954;2023-08-07T05:23:28;51.78;37.94;65.28;;
81493;Laerm;70900;51.798;10.954;2023-08-07T05:25:53;49.00;36.89;64.55;;
81493;Laerm;70900;51.798;10.954;2023-08-07T05:28:18;38.53;35.73;47.87;;
81493;Laerm;70900;51.798;10.954;2023-08-07T05:30:44;55.26;36.15;72.86;;
81493;Laerm;70900;51.798;10.954;2023-08-07T05:33:09;59.47;38.13;74.03;;
81493;Laerm;70900;51.798;10.954;2023-08-07T05:35:34;57.06;40.65;68.38;;
81493;Laerm;70900;51.798;10.954;2023-08-07T05:38:00;52.14;39.86;65.86;;
81493;Laerm;70900;51.798;10.954;2023-08-07T05:40:26;50.72;40.14;64.03;;
81493;Laerm;70900;51.798;10.954;2023-08-07T05:42:51;48.09;37.87;62.41;;
81493;Laerm;70900;51.798;10.954;2023-08-07T05:45:17;47.92;39.14;61.26;;
81493;Laerm;70900;51.798;10.954;2023-08-07T05:47:42;56.77;40.54;70.43;;
81493;Laerm;70900;51.798;10.954;2023-08-07T05:50:07;46.29;38.52;59.72;;
81493;Laerm;70900;51.798;10.954;2023-08-07T05:52:33;53.93;39.20;67.25;;
81493;Laerm;70900;51.798;10.954;2023-08-07T05:54:58;50.07;38.33;64.97;;
81493;Laerm;70900;51.798;10.954;2023-08-07T05:57:24;53.57;37.25;68.04;;
81493;Laerm;70900;51.798;10.954;2023-08-07T05:59:49;57.00;41.52;71.99;;
81493;Laerm;70900;51.798;10.954;2023-08-07T06:02:15;54.74;40.18;66.00;;
81493;Laerm;70900;51.798;10.954;2023-08-07T06:04:40;44.38;38.14;56.08;;
81493;Laerm;70900;51.798;10.954;2023-08-07T06:07:05;50.25;37.45;66.54;;
81493;Laerm;70900;51.798;10.954;2023-08-07T06:09:31;52.85;38.17;66.50;;
81493;Laerm;70900;51.798;10.954;2023-08-07T06:11:56;58.63;38.32;72.73;;
81493;Laerm;70900;51.798;10.954;2023-08-07T06:14:22;54.80;41.41;71.16;;
81493;Laerm;70900;51.798;10.954;2023-08-07T06:16:50;43.31;38.83;56.63;;
81493;Laerm;70900;51.798;10.954;2023-08-07T06:19:15;49.60;39.50;63.50;;
81493;Laerm;70900;51.798;10.954;2023-08-07T06:21:40;56.26;40.86;66.83;;
81493;Laerm;70900;51.798;10.954;2023-08-07T06:24:06;56.30;39.06;70.00;;
81493;Laerm;70900;51.798;10.954;2023-08-07T06:26:31;55.38;38.55;67.32;;
81493;Laerm;70900;51.798;10.954;2023-08-07T06:28:57;53.59;38.62;67.80;;
81493;Laerm;70900;51.798;10.954;2023-08-07T06:31:22;45.44;39.14;59.22;;
81493;Laerm;70900;51.798;10.954;2023-08-07T06:33:49;56.44;38.86;73.33;;
81493;Laerm;70900;51.798;10.954;2023-08-07T06:36:14;45.10;37.78;52.17;;
81493;Laerm;70900;51.798;10.954;2023-08-07T06:38:39;57.79;42.20;67.48;;
81493;Laerm;70900;51.798;10.954;2023-08-07T06:41:05;51.72;40.94;64.00;;
81493;Laerm;70900;51.798;10.954;2023-08-07T06:43:30;57.13;43.83;68.45;;
81493;Laerm;70900;51.798;10.954;2023-08-07T06:45:56;52.80;41.66;63.21;;
81493;Laerm;70900;51.798;10.954;2023-08-07T06:48:22;57.07;42.03;68.32;;
81493;Laerm;70900;51.798;10.954;2023-08-07T06:50:47;55.41;40.51;69.38;;
81493;Laerm;70900;51.798;10.954;2023-08-07T06:53:13;54.58;46.09;66.84;;
81493;Laerm;70900;51.798;10.954;2023-08-07T06:55:38;57.82;43.87;71.84;;
81493;Laerm;70900;51.798;10.954;2023-08-07T06:58:03;63.05;44.31;77.28;;
81493;Laerm;70900;51.798;10.954;2023-08-07T07:00:29;61.81;44.69;76.27;;
81493;Laerm;70900;51.798;10.954;2023-08-07T07:02:55;60.00;42.81;70.92;;
81493;Laerm;70900;51.798;10.954;2023-08-07T07:05:20;59.76;42.42;73.58;;
81493;Laerm;70900;51.798;10.954;2023-08-07T07:07:46;61.62;40.34;75.86;;
81493;Laerm;70900;51.798;10.954;2023-08-07T07:10:12;56.75;38.07;68.72;;
81493;Laerm;70900;51.798;10.954;2023-08-07T07:12:37;63.14;39.31;80.91;;
81493;Laerm;70900;51.798;10.954;2023-08-07T07:15:03;58.56;38.11;72.93;;
81493;Laerm;70900;51.798;10.954;2023-08-07T07:17:28;63.20;39.66;80.34;;
81493;Laerm;70900;51.798;10.954;2023-08-07T07:19:53;60.35;38.03;77.65;;
81493;Laerm;70900;51.798;10.954;2023-08-07T07:22:19;53.90;38.55;70.79;;
81493;Laerm;70900;51.798;10.954;2023-08-07T07:24:44;60.18;38.62;76.33;;
81493;Laerm;70900;51.798;10.954;2023-08-07T07:27:09;59.54;42.36;72.41;;
81493;Laerm;70900;51.798;10.954;2023-08-07T07:29:35;58.70;39.30;70.18;;
81493;Laerm;70900;51.798;10.954;2023-08-07T07:32:00;58.53;40.03;71.02;;
81493;Laerm;70900;51.798;10.954;2023-08-07T07:34:26;60.36;40.66;74.11;;
81493;Laerm;70900;51.798;10.954;2023-08-07T07:36:51;57.14;41.54;68.02;;
81493;Laerm;70900;51.798;10.954;2023-08-07T07:39:18;58.22;38.42;70.08;;
81493;Laerm;70900;51.798;10.954;2023-08-07T07:41:44;58.14;40.66;70.41;;
81493;Laerm;70900;51.798;10.954;2023-08-07T07:44:09;61.55;42.93;77.06;;
81493;Laerm;70900;51.798;10.954;2023-08-07T07:46:35;58.66;41.97;72.15;;
81493;Laerm;70900;51.798;10.954;2023-08-07T07:49:00;65.99;42.82;87.68;;
81493;Laerm;70900;51.798;10.954;2023-08-07T07:51:28;64.18;41.90;79.17;;
81493;Laerm;70900;51.798;10.954;2023-08-07T07:53:54;58.53;41.92;67.94;;
81493;Laerm;70900;51.798;10.954;2023-08-07T07:56:19;55.40;40.31;66.66;;
81493;Laerm;70900;51.798;10.954;2023-08-07T07:58:45;58.28;40.30;69.06;;
81493;Laerm;70900;51.798;10.954;2023-08-07T08:01:10;54.93;41.60;66.09;;
81493;Laerm;70900;51.798;10.954;2023-08-07T08:03:36;58.24;41.71;69.06;;
81493;Laerm;70900;51.798;10.954;2023-08-07T08:06:01;53.32;38.76;67.21;;
81493;Laerm;70900;51.798;10.954;2023-08-07T08:08:27;55.20;38.65;67.67;;
81493;Laerm;70900;51.798;10.954;2023-08-07T08:10:52;56.48;42.18;66.32;;
81493;Laerm;70900;51.798;10.954;2023-08-07T08:13:18;58.00;44.97;70.60;;
81493;Laerm;70900;51.798;10.954;2023-08-07T08:15:43;52.21;39.84;64.17;;
81493;Laerm;70900;51.798;10.954;2023-08-07T08:18:09;63.74;41.08;80.31;;
81493;Laerm;70900;51.798;10.954;2023-08-07T08:20:35;58.39;45.36;69.85;;
81493;Laerm;70900;51.798;10.954;2023-08-07T08:23:00;55.40;42.72;65.42;;
81493;Laerm;70900;51.798;10.954;2023-08-07T08:25:26;61.60;42.89;83.18;;
81493;Laerm;70900;51.798;10.954;2023-08-07T08:27:51;56.10;43.56;67.75;;
81493;Laerm;70900;51.798;10.954;2023-08-07T09:34:02;56.81;43.18;68.66;;
81493;Laerm;70900;51.798;10.954;2023-08-07T09:36:31;57.80;46.62;73.97;;
81493;Laerm;70900;51.798;10.954;2023-08-07T09:39:00;58.31;45.51;69.93;;
81493;Laerm;70900;51.798;10.954;2023-08-07T09:41:25;56.32;45.24;67.86;;
81493;Laerm;70900;51.798;10.954;2023-08-07T09:43:53;57.42;43.96;75.66;;
81493;Laerm;70900;51.798;10.954;2023-08-07T09:46:19;57.69;44.16;67.52;;
81493;Laerm;70900;51.798;10.954;2023-08-07T09:48:44;50.55;42.38;65.36;;
81493;Laerm;70900;51.798;10.954;2023-08-07T09:51:10;55.27;43.17;65.91;;
81493;Laerm;70900;51.798;10.954;2023-08-07T09:53:36;54.37;42.54;65.72;;
81493;Laerm;70900;51.798;10.954;2023-08-07T09:56:01;53.46;42.52;66.52;;
81493;Laerm;70900;51.798;10.954;2023-08-07T09:58:27;60.32;42.20;70.59;;
81493;Laerm;70900;51.798;10.954;2023-08-07T10:00:53;51.79;42.97;62.86;;
81493;Laerm;70900;51.798;10.954;2023-08-07T10:03:21;53.50;43.76;67.37;;
81493;Laerm;70900;51.798;10.954;2023-08-07T10:05:47;55.80;47.46;67.27;;
81493;Laerm;70900;51.798;10.954;2023-08-07T10:08:14;56.10;42.88;66.53;;
81493;Laerm;70900;51.798;10.954;2023-08-07T10:10:39;54.35;44.05;64.24;;
81493;Laerm;70900;51.798;10.954;2023-08-07T10:13:05;54.93;43.13;68.69;;
81493;Laerm;70900;51.798;10.954;2023-08-07T10:15:31;50.92;40.07;63.21;;
81493;Laerm;70900;51.798;10.954;2023-08-07T10:17:57;55.06;41.44;70.70;;
81493;Laerm;70900;51.798;10.954;2023-08-07T10:20:22;55.11;42.56;68.93;;
81493;Laerm;70900;51.798;10.954;2023-08-07T10:22:49;56.04;43.72;68.70;;
81493;Laerm;70900;51.798;10.954;2023-08-07T10:25:15;56.18;46.19;67.12;;
81493;Laerm;70900;51.798;10.954;2023-08-07T10:27:43;54.71;43.43;66.83;;
81493;Laerm;70900;51.798;10.954;2023-08-07T10:30:09;52.47;41.23;66.03;;
81493;Laerm;70900;51.798;10.954;2023-08-07T10:32:37;59.99;42.96;76.41;;
81493;Laerm;70900;51.798;10.954;2023-08-07T10:35:03;57.47;46.40;69.97;;
81493;Laerm;70900;51.798;10.954;2023-08-07T10:37:32;54.81;44.22;65.33;;
81493;Laerm;70900;51.798;10.954;2023-08-07T10:40:05;56.31;44.23;67.44;;
81493;Laerm;70900;51.798;10.954;2023-08-07T10:43:20;56.98;43.24;67.67;;
81493;Laerm;70900;51.798;10.954;2023-08-07T10:45:20;53.43;43.37;64.67;;
81493;Laerm;70900;51.798;10.954;2023-08-07T10:50:28;52.32;42.36;62.76;;
81493;Laerm;70900;51.798;10.954;2023-08-07T10:52:54;54.89;44.27;67.44;;
81493;Laerm;70900;51.798;10.954;2023-08-07T10:55:20;57.86;43.33;75.65;;
81493;Laerm;70900;51.798;10.954;2023-08-07T10:57:46;52.56;43.27;67.19;;
81493;Laerm;70900;51.798;10.954;2023-08-07T11:00:12;58.30;46.36;70.59;;
81493;Laerm;70900;51.798;10.954;2023-08-07T11:02:37;58.98;49.86;67.52;;
81493;Laerm;70900;51.798;10.954;2023-08-07T11:05:06;62.03;53.91;70.25;;
81493;Laerm;70900;51.798;10.954;2023-08-07T11:07:31;62.31;49.38;73.99;;
81493;Laerm;70900;51.798;10.954;2023-08-07T11:09:57;54.04;43.84;71.17;;
81493;Laerm;70900;51.798;10.954;2023-08-07T11:12:26;65.60;43.98;81.42;;
81493;Laerm;70900;51.798;10.954;2023-08-07T11:14:52;60.17;46.18;72.01;;
81493;Laerm;70900;51.798;10.954;2023-08-07T11:17:26;56.19;40.68;70.12;;
81493;Laerm;70900;51.798;10.954;2023-08-07T11:19:52;58.55;40.63;72.91;;
81493;Laerm;70900;51.798;10.954;2023-08-07T11:22:18;60.05;40.94;72.92;;
81493;Laerm;70900;51.798;10.954;2023-08-07T11:24:44;58.31;39.44;72.71;;
81493;Laerm;70900;51.798;10.954;2023-08-07T11:27:10;57.97;40.95;73.06;;
81493;Laerm;70900;51.798;10.954;2023-08-07T11:29:35;45.51;40.20;59.87;;
81493;Laerm;70900;51.798;10.954;2023-08-07T11:32:01;54.34;40.98;70.26;;
81493;Laerm;70900;51.798;10.954;2023-08-07T11:34:27;58.64;40.56;73.06;;
81493;Laerm;70900;51.798;10.954;2023-08-07T11:36:52;59.76;40.06;79.06;;
81493;Laerm;70900;51.798;10.954;2023-08-07T11:39:20;54.46;41.85;65.44;;
81493;Laerm;70900;51.798;10.954;2023-08-07T11:41:45;53.23;43.38;67.06;;
81493;Laerm;70900;51.798;10.954;2023-08-07T11:44:11;58.18;41.76;68.93;;
81493;Laerm;70900;51.798;10.954;2023-08-07T11:46:37;57.59;45.57;68.92;;
81493;Laerm;70900;51.798;10.954;2023-08-07T11:49:02;62.10;44.84;78.14;;
81493;Laerm;70900;51.798;10.954;2023-08-07T11:51:29;57.89;45.92;67.83;;
81493;Laerm;70900;51.798;10.954;2023-08-07T11:53:54;63.78;50.09;75.03;;
81493;Laerm;70900;51.798;10.954;2023-08-07T11:56:23;59.23;45.77;72.42;;
81493;Laerm;70900;51.798;10.954;2023-08-07T11:58:48;58.97;44.22;77.63;;
81493;Laerm;70900;51.798;10.954;2023-08-07T12:01:15;50.94;41.76;77.62;;
81493;Laerm;70900;51.798;10.954;2023-08-07T12:03:42;52.44;41.77;66.63;;
81493;Laerm;70900;51.798;10.954;2023-08-07T12:06:08;56.36;42.71;67.65;;
81493;Laerm;70900;51.798;10.954;2023-08-07T12:08:34;54.72;38.98;68.83;;
81493;Laerm;70900;51.798;10.954;2023-08-07T12:11:03;54.16;42.99;66.99;;
81493;Laerm;70900;51.798;10.954;2023-08-07T12:13:29;52.08;38.93;67.60;;
81493;Laerm;70900;51.798;10.954;2023-08-07T12:15:55;52.02;39.16;64.71;;
81493;Laerm;70900;51.798;10.954;2023-08-07T12:18:21;52.56;39.72;65.70;;
81493;Laerm;70900;51.798;10.954;2023-08-07T12:20:50;53.70;40.38;65.95;;
81493;Laerm;70900;51.798;10.954;2023-08-07T12:23:17;55.36;45.98;64.99;;
81493;Laerm;70900;51.798;10.954;2023-08-07T12:25:42;55.71;45.24;67.80;;
81493;Laerm;70900;51.798;10.954;2023-08-07T12:28:08;58.52;47.04;71.41;;
81493;Laerm;70900;51.798;10.954;2023-08-07T12:30:34;54.88;44.10;68.20;;
81493;Laerm;70900;51.798;10.954;2023-08-07T12:32:59;60.22;45.15;73.73;;
81493;Laerm;70900;51.798;10.954;2023-08-07T12:35:25;53.04;41.37;63.28;;
81493;Laerm;70900;51.798;10.954;2023-08-07T12:37:50;56.00;45.63;64.86;;
81493;Laerm;70900;51.798;10.954;2023-08-07T12:40:15;55.25;44.34;65.05;;
81493;Laerm;70900;51.798;10.954;2023-08-07T12:42:44;54.90;42.89;66.67;;
81493;Laerm;70900;51.798;10.954;2023-08-07T12:45:10;55.60;48.87;66.67;;
81493;Laerm;70900;51.798;10.954;2023-08-07T12:47:35;54.74;44.30;67.88;;
81493;Laerm;70900;51.798;10.954;2023-08-07T12:50:00;56.42;44.61;66.45;;
81493;Laerm;70900;51.798;10.954;2023-08-07T12:52:26;56.56;44.43;66.43;;
81493;Laerm;70900;51.798;10.954;2023-08-07T12:54:51;54.88;43.93;65.20;;
81493;Laerm;70900;51.798;10.954;2023-08-07T12:57:17;57.28;43.44;71.28;;
81493;Laerm;70900;51.798;10.954;2023-08-07T12:59:42;57.34;40.67;67.78;;
81493;Laerm;70900;51.798;10.954;2023-08-07T13:02:07;57.98;45.12;71.99;;
81493;Laerm;70900;51.798;10.954;2023-08-07T13:04:33;52.82;44.48;65.81;;
81493;Laerm;70900;51.798;10.954;2023-08-07T13:06:58;58.87;44.21;75.46;;
81493;Laerm;70900;51.798;10.954;2023-08-07T13:09:24;55.35;44.02;66.77;;
81493;Laerm;70900;51.798;10.954;2023-08-07T13:11:49;56.77;43.97;67.34;;
81493;Laerm;70900;51.798;10.954;2023-08-07T13:14:15;57.25;43.41;68.32;;
81493;Laerm;70900;51.798;10.954;2023-08-07T13:16:40;59.10;45.47;74.88;;
81493;Laerm;70900;51.798;10.954;2023-08-07T13:19:05;60.05;45.09;76.57;;
81493;Laerm;70900;51.798;10.954;2023-08-07T13:21:31;59.00;44.08;75.87;;
81493;Laerm;70900;51.798;10.954;2023-08-07T13:23:56;52.94;42.74;66.07;;
81493;Laerm;70900;51.798;10.954;2023-08-07T13:26:21;61.66;43.38;77.07;;
81493;Laerm;70900;51.798;10.954;2023-08-07T13:28:47;58.04;44.54;69.43;;
81493;Laerm;70900;51.798;10.954;2023-08-07T13:31:12;57.26;45.78;67.76;;
81493;Laerm;70900;51.798;10.954;2023-08-07T13:33:37;55.03;45.21;65.99;;
81493;Laerm;70900;51.798;10.954;2023-08-07T13:36:03;59.28;44.59;76.22;;
81493;Laerm;70900;51.798;10.954;2023-08-07T13:38:28;56.83;44.69;69.08;;
81493;Laerm;70900;51.798;10.954;2023-08-07T13:40:54;56.69;45.80;66.23;;
81493;Laerm;70900;51.798;10.954;2023-08-07T13:43:19;54.69;44.65;65.35;;
81493;Laerm;70900;51.798;10.954;2023-08-07T13:45:44;56.12;44.75;67.36;;
81493;Laerm;70900;51.798;10.954;2023-08-07T13:48:10;60.76;50.15;72.00;;
81493;Laerm;70900;51.798;10.954;2023-08-07T13:50:35;58.72;48.32;66.76;;
81493;Laerm;70900;51.798;10.954;2023-08-07T13:53:03;55.98;46.42;63.60;;
81493;Laerm;70900;51.798;10.954;2023-08-07T13:55:28;57.35;46.33;67.02;;
81493;Laerm;70900;51.798;10.954;2023-08-07T13:57:54;57.72;46.87;70.03;;
81493;Laerm;70900;51.798;10.954;2023-08-07T14:00:20;54.94;45.21;68.40;;
81493;Laerm;70900;51.798;10.954;2023-08-07T14:02:45;59.03;48.56;67.62;;
81493;Laerm;70900;51.798;10.954;2023-08-07T14:05:10;57.73;48.51;68.30;;
81493;Laerm;70900;51.798;10.954;2023-08-07T14:07:36;61.54;52.46;74.20;;
81493;Laerm;70900;51.798;10.954;2023-08-07T14:10:01;58.98;51.11;65.75;;
81493;Laerm;70900;51.798;10.954;2023-08-07T14:12:26;56.87;47.76;68.02;;
81493;Laerm;70900;51.798;10.954;2023-08-07T14:14:52;56.47;45.55;70.49;;
81493;Laerm;70900;51.798;10.954;2023-08-07T14:17:18;53.12;42.84;65.97;;
81493;Laerm;70900;51.798;10.954;2023-08-07T14:19:43;56.17;43.66;67.60;;
81493;Laerm;70900;51.798;10.954;2023-08-07T14:22:09;58.01;41.65;73.49;;
81493;Laerm;70900;51.798;10.954;2023-08-07T14:24:35;56.83;40.07;65.75;;
81493;Laerm;70900;51.798;10.954;2023-08-07T14:27:01;52.96;39.83;67.34;;
81493;Laerm;70900;51.798;10.954;2023-08-07T14:29:26;54.12;40.13;66.74;;
81493;Laerm;70900;51.798;10.954;2023-08-07T14:31:52;43.57;37.76;53.92;;
81493;Laerm;70900;51.798;10.954;2023-08-07T14:34:17;60.69;40.42;75.86;;
81493;Laerm;70900;51.798;10.954;2023-08-07T14:36:42;56.89;43.18;66.84;;
81493;Laerm;70900;51.798;10.954;2023-08-07T14:39:08;58.86;43.43;70.62;;
81493;Laerm;70900;51.798;10.954;2023-08-07T14:41:33;59.98;46.95;69.49;;